createdAt,value
2022-07-26T00:00:39.566Z,100350.91
2022-07-26T00:03:05.908Z,100338.16
2022-07-26T00:05:32.228Z,100316.84
2022-07-26T00:07:58.483Z,100295.50
2022-07-26T00:10:24.706Z,100271.19
2022-07-26T00:12:50.945Z,100238.03
2022-07-26T00:15:17.171Z,100213.69
2022-07-26T00:17:43.406Z,100205.66
2022-07-26T00:20:09.738Z,100235.69
2022-07-26T00:22:36.009Z,100219.94
2022-07-26T00:25:03.283Z,100223.63
2022-07-26T00:27:29.528Z,100221.50
2022-07-26T00:29:55.788Z,100220.84
2022-07-26T00:32:22.026Z,100226.81
2022-07-26T00:34:48.276Z,100231.97
2022-07-26T00:37:19.993Z,100268.09
2022-07-26T00:39:46.665Z,100278.38
2022-07-26T00:42:12.900Z,100324.59
2022-07-26T00:44:39.691Z,100325.56
2022-07-26T00:47:05.971Z,100333.66
2022-07-26T00:49:32.215Z,100331.00
2022-07-26T00:51:58.457Z,100332.03
2022-07-26T00:54:24.710Z,100377.03
2022-07-26T00:56:54.977Z,100375.31
2022-07-26T00:59:21.495Z,100381.06
2022-07-26T01:01:48.009Z,100386.69
2022-07-26T01:04:14.573Z,100389.13
2022-07-26T01:06:41.392Z,100391.63
2022-07-26T01:09:07.870Z,100366.91
2022-07-26T01:11:34.281Z,100353.38
2022-07-26T01:14:00.670Z,100342.34
2022-07-26T01:16:27.091Z,100334.84
2022-07-26T01:18:53.527Z,100325.84
2022-07-26T01:21:19.903Z,100309.34
2022-07-26T01:23:46.291Z,100314.47
2022-07-26T01:26:12.718Z,100303.25
2022-07-26T01:28:40.606Z,100298.75
2022-07-26T01:31:07.393Z,100311.53
2022-07-26T01:33:34.298Z,100321.63
2022-07-26T01:36:00.941Z,100323.06
2022-07-26T01:38:27.340Z,100343.19
2022-07-26T01:40:53.809Z,100375.50
2022-07-26T01:43:20.192Z,100392.47
2022-07-26T01:45:46.680Z,100406.56
2022-07-26T01:48:13.082Z,100419.63
2022-07-26T01:50:39.550Z,100398.97
2022-07-26T01:53:06.250Z,100396.19
2022-07-26T01:55:32.931Z,100424.06
2022-07-26T01:58:00.435Z,100457.19
2022-07-26T02:00:26.819Z,100457.84
2022-07-26T02:02:53.276Z,100444.94
2022-07-26T02:05:19.802Z,100438.94
2022-07-26T02:07:46.170Z,100415.25
2022-07-26T02:10:13.121Z,100435.72
2022-07-26T02:12:40.921Z,100423.91
2022-07-26T02:15:07.781Z,100431.59
2022-07-26T02:17:34.149Z,100413.56
2022-07-26T02:20:00.543Z,100403.81
2022-07-26T02:22:26.923Z,100377.69
2022-07-26T02:24:53.433Z,100391.50
2022-07-26T02:27:19.828Z,100382.97
2022-07-26T02:29:46.213Z,100407.75
2022-07-26T02:32:12.577Z,100419.00
2022-07-26T02:34:38.972Z,100424.47
2022-07-26T02:37:05.359Z,100440.66
2022-07-26T02:39:31.743Z,100445.25
2022-07-26T02:41:59.047Z,100443.59
2022-07-26T02:44:25.706Z,100444.56
2022-07-26T02:46:52.349Z,100427.06
2022-07-26T02:49:19.274Z,100433.34
2022-07-26T02:51:45.882Z,100424.81
2022-07-26T02:54:12.665Z,100413.78
2022-07-26T02:56:39.322Z,100425.66
2022-07-26T02:59:05.884Z,100404.78
2022-07-26T03:01:32.298Z,100382.88
2022-07-26T03:03:58.769Z,100330.88
2022-07-26T03:06:25.134Z,100296.94
2022-07-26T03:08:51.514Z,100310.28
2022-07-26T03:11:17.892Z,100307.81
2022-07-26T03:13:44.269Z,100298.84
2022-07-26T03:16:10.756Z,100283.47
2022-07-26T03:18:37.182Z,100274.59
2022-07-26T03:21:03.663Z,100282.84
2022-07-26T03:23:30.034Z,100277.34
2022-07-26T03:25:56.423Z,100319.53
2022-07-26T03:28:22.788Z,100322.34
2022-07-26T03:30:49.207Z,100331.25
2022-07-26T03:33:15.620Z,100398.31
2022-07-26T03:35:42.017Z,100430.56
2022-07-26T03:38:08.393Z,100424.34
2022-07-26T03:40:34.776Z,100406.34
2022-07-26T03:43:01.149Z,100376.34
2022-07-26T03:45:29.311Z,100350.50
2022-07-26T03:47:55.674Z,100347.81
2022-07-26T03:50:22.046Z,100374.94
2022-07-26T03:52:48.419Z,100390.22
2022-07-26T03:55:14.807Z,100383.28
2022-07-26T03:57:41.184Z,100369.97
2022-07-26T04:00:08.161Z,100373.50
2022-07-26T04:02:34.606Z,100399.22
2022-07-26T04:05:01.055Z,100413.69
2022-07-26T04:07:27.440Z,100410.75
2022-07-26T04:09:53.830Z,100422.16
2022-07-26T04:12:20.206Z,100440.81
2022-07-26T04:14:46.573Z,100433.97
2022-07-26T04:17:13.119Z,100442.31
2022-07-26T04:19:40.021Z,100436.81
2022-07-26T04:22:06.423Z,100433.59
2022-07-26T04:24:32.806Z,100435.66
2022-07-26T04:26:59.188Z,100440.09
2022-07-26T04:29:25.569Z,100420.53
2022-07-26T04:31:51.968Z,100428.06
2022-07-26T04:34:18.333Z,100435.03
2022-07-26T04:36:44.709Z,100434.09
2022-07-26T04:39:11.088Z,100435.75
2022-07-26T04:41:37.458Z,100435.66
2022-07-26T04:44:03.952Z,100413.63
2022-07-26T04:46:30.440Z,100416.81
2022-07-26T04:48:56.936Z,100407.28
2022-07-26T04:51:23.393Z,100402.00
2022-07-26T04:53:50.294Z,100399.56
2022-07-26T04:56:16.686Z,100403.34
2022-07-26T04:58:43.063Z,100411.66
2022-07-26T05:01:10.749Z,100394.31
2022-07-26T05:03:37.896Z,100396.03
2022-07-26T05:06:04.418Z,100386.84
2022-07-26T05:08:30.796Z,100377.78
2022-07-26T05:10:57.186Z,100363.63
2022-07-26T05:13:30.352Z,100349.72
2022-07-26T05:15:57.569Z,100353.72
2022-07-26T05:18:23.955Z,100339.56
2022-07-26T05:20:50.836Z,100352.41
2022-07-26T05:23:17.218Z,100346.28
2022-07-26T05:25:43.705Z,100343.88
2022-07-26T05:28:10.089Z,100323.59
2022-07-26T05:30:36.534Z,100332.31
2022-07-26T05:33:02.957Z,100326.19
2022-07-26T05:35:29.340Z,100317.47
2022-07-26T05:37:55.712Z,100321.38
2022-07-26T05:40:22.105Z,100309.69
2022-07-26T05:42:48.638Z,100299.84
2022-07-26T05:45:15.039Z,100314.50
2022-07-26T05:47:41.425Z,100328.53
2022-07-26T05:50:08.105Z,100328.69
2022-07-26T05:52:34.490Z,100327.72
2022-07-26T05:55:00.884Z,100315.41
2022-07-26T05:57:27.258Z,100304.44
2022-07-26T05:59:53.629Z,100257.03
2022-07-26T06:02:20.065Z,100240.47
2022-07-26T06:04:47.574Z,100309.66
2022-07-26T06:07:14.424Z,100315.22
2022-07-26T06:09:40.801Z,100324.47
2022-07-26T06:12:07.221Z,100327.28
2022-07-26T06:14:33.940Z,100357.19
2022-07-26T06:17:00.404Z,100387.53
2022-07-26T06:19:26.825Z,100415.75
2022-07-26T06:21:53.223Z,100420.09
2022-07-26T06:24:19.603Z,100416.94
2022-07-26T06:26:45.988Z,100429.94
2022-07-26T06:29:13.140Z,100445.53
2022-07-26T06:31:39.543Z,100423.34
2022-07-26T06:34:06.461Z,100259.31
2022-07-26T06:36:36.297Z,100237.31
2022-07-26T06:39:02.706Z,100149.84
2022-07-26T06:41:29.095Z,100108.13
2022-07-26T06:43:55.467Z,99968.59
2022-07-26T06:46:21.931Z,100023.19
2022-07-26T06:48:52.626Z,100016.81
2022-07-26T06:51:19.573Z,100153.66
2022-07-26T06:53:45.944Z,100264.94
2022-07-26T06:56:12.332Z,100249.03
2022-07-26T06:58:38.717Z,100172.78
2022-07-26T07:01:05.196Z,100103.91
2022-07-26T07:03:31.639Z,100027.78
2022-07-26T07:05:58.022Z,100110.03
2022-07-26T07:08:24.397Z,100110.09
2022-07-26T07:10:51.686Z,100044.94
2022-07-26T07:13:18.960Z,100037.91
2022-07-26T07:15:45.353Z,99989.63
2022-07-26T07:18:11.723Z,100056.41
2022-07-26T07:20:38.926Z,100145.41
2022-07-26T07:23:05.298Z,100265.09
2022-07-26T07:25:31.712Z,100258.44
2022-07-26T07:27:58.531Z,100063.22
2022-07-26T07:30:25.000Z,100071.53
2022-07-26T07:32:54.370Z,100122.16
2022-07-26T07:35:20.745Z,100049.13
2022-07-26T07:37:52.763Z,100139.25
2022-07-26T07:40:20.366Z,100246.13
2022-07-26T07:42:46.744Z,100361.09
2022-07-26T07:45:13.118Z,100279.47
2022-07-26T07:47:39.499Z,100196.72
2022-07-26T07:50:06.504Z,100189.91
2022-07-26T07:52:32.882Z,100070.00
2022-07-26T07:55:36.025Z,100011.66
2022-07-26T07:57:45.664Z,99892.69
2022-07-26T08:00:12.921Z,99915.50
2022-07-26T08:02:42.363Z,100066.69
2022-07-26T08:05:11.338Z,100145.78
2022-07-26T08:07:41.007Z,100117.28
2022-07-26T08:10:08.008Z,99983.44
2022-07-26T08:12:34.406Z,99988.09
2022-07-26T08:15:00.866Z,100031.03
2022-07-26T08:17:34.044Z,100176.13
2022-07-26T08:20:01.617Z,100265.84
2022-07-26T08:22:28.028Z,100313.66
2022-07-26T08:24:54.393Z,100375.19
2022-07-26T08:27:20.994Z,100419.16
2022-07-26T08:29:47.380Z,100522.09
2022-07-26T08:32:13.863Z,100676.16
2022-07-26T08:34:40.255Z,100812.25
2022-07-26T08:37:17.246Z,100834.91
2022-07-26T08:39:44.878Z,100852.97
2022-07-26T08:42:22.866Z,100838.75
2022-07-26T08:44:49.906Z,100850.41
2022-07-26T08:47:18.142Z,100833.13
2022-07-26T08:50:01.941Z,100806.50
2022-07-26T08:52:28.505Z,100777.38
2022-07-26T08:54:54.882Z,100759.28
2022-07-26T08:57:21.262Z,100743.41
2022-07-26T09:00:08.068Z,100726.81
2022-07-26T09:02:40.078Z,100706.38
2022-07-26T09:05:06.916Z,100700.22
2022-07-26T09:07:33.512Z,100694.28
2022-07-26T09:10:02.391Z,100661.63
2022-07-26T09:12:29.426Z,100663.06
2022-07-26T09:14:56.053Z,100647.25
2022-07-26T09:17:23.948Z,100607.84
2022-07-26T09:20:07.137Z,100605.84
2022-07-26T09:22:33.522Z,100580.81
2022-07-26T09:24:59.890Z,100565.59
2022-07-26T09:27:28.272Z,100519.81
2022-07-26T09:29:54.859Z,100512.91
2022-07-26T09:32:25.576Z,100521.38
2022-07-26T09:34:58.743Z,100519.19
2022-07-26T09:37:35.563Z,100527.50
2022-07-26T09:40:03.469Z,100496.31
2022-07-26T09:42:30.176Z,100444.63
2022-07-26T09:44:57.073Z,100406.88
2022-07-26T09:47:26.971Z,100388.84
2022-07-26T09:50:11.726Z,100352.84
2022-07-26T09:52:40.321Z,100375.13
2022-07-26T09:55:07.744Z,100370.28
2022-07-26T09:57:34.432Z,100232.34
2022-07-26T10:00:05.227Z,100264.19
2022-07-26T10:02:32.897Z,100326.03
2022-07-26T10:04:59.349Z,100366.88
2022-07-26T10:07:25.733Z,100347.78
2022-07-26T10:10:00.943Z,100250.38
2022-07-26T10:12:30.573Z,100251.81
2022-07-26T10:14:57.148Z,100235.34
2022-07-26T10:17:31.412Z,100278.44
2022-07-26T10:20:03.143Z,100310.22
2022-07-26T10:22:41.017Z,100275.75
2022-07-26T10:25:19.684Z,100196.94
2022-07-26T10:27:50.687Z,100151.47
2022-07-26T10:30:17.540Z,100226.84
2022-07-26T10:33:07.116Z,100302.16
2022-07-26T10:35:34.021Z,100204.59
2022-07-26T10:38:02.639Z,100221.84
2022-07-26T10:40:29.058Z,100243.50
2022-07-26T10:46:17.261Z,100621.69
2022-07-26T10:49:03.102Z,100645.00
2022-07-26T10:51:39.898Z,100659.13
2022-07-26T10:54:10.452Z,100578.69
2022-07-26T10:56:37.171Z,100601.41
2022-07-26T10:59:04.275Z,100577.00
2022-07-26T11:01:34.724Z,100649.91
2022-07-26T11:04:01.202Z,100693.63
2022-07-26T11:06:28.549Z,100764.03
2022-07-26T11:08:54.927Z,100747.22
2022-07-26T11:11:29.249Z,100672.34
2022-07-26T11:14:09.660Z,100498.81
2022-07-26T11:16:49.220Z,100463.19
2022-07-26T11:19:20.005Z,100394.44
2022-07-26T11:21:47.691Z,100303.78
2022-07-26T11:24:14.601Z,100194.41
2022-07-26T11:26:42.357Z,100329.94
2022-07-26T11:29:08.750Z,100372.31
2022-07-26T11:31:51.341Z,100337.88
2022-07-26T11:34:26.221Z,100363.00
2022-07-26T11:36:54.948Z,100464.28
2022-07-26T11:39:23.479Z,100495.28
2022-07-26T11:41:49.943Z,100399.59
2022-07-26T11:44:20.417Z,100360.91
2022-07-26T11:46:46.913Z,100390.06
2022-07-26T11:49:59.736Z,100467.34
2022-07-26T11:52:14.588Z,100479.72
2022-07-26T11:54:48.017Z,100465.66
2022-07-26T11:57:14.496Z,100474.66
2022-07-26T11:59:40.989Z,100429.59
2022-07-26T12:02:08.554Z,100247.50
2022-07-26T12:04:36.868Z,100131.69
2022-07-26T12:07:14.091Z,100116.06
2022-07-26T12:09:47.818Z,100082.25
2022-07-26T12:12:25.719Z,100153.78
2022-07-26T12:14:59.207Z,100179.91
2022-07-26T12:17:25.673Z,100151.75
2022-07-26T12:19:53.659Z,100062.44
2022-07-26T12:22:23.456Z,99963.41
2022-07-26T12:24:52.695Z,100007.53
2022-07-26T12:27:24.429Z,99816.03
2022-07-26T12:30:14.471Z,99786.28
2022-07-26T12:32:42.053Z,99740.38
2022-07-26T12:35:15.088Z,99710.06
2022-07-26T12:37:47.447Z,99830.06
2022-07-26T12:40:15.472Z,99836.59
2022-07-26T12:42:50.815Z,99771.28
2022-07-26T12:45:21.403Z,99833.25
2022-07-26T12:47:49.101Z,99898.47
2022-07-26T12:50:16.505Z,99944.38
2022-07-26T12:52:42.918Z,99892.63
2022-07-26T12:55:10.721Z,99951.09
2022-07-26T12:57:37.146Z,99991.75
2022-07-26T13:00:04.458Z,100117.00
2022-07-26T13:02:30.834Z,99980.72
2022-07-26T13:05:00.371Z,100012.81
2022-07-26T13:07:27.178Z,100073.16
2022-07-26T13:10:14.249Z,100158.38
2022-07-26T13:12:40.310Z,100091.22
2022-07-26T13:15:07.069Z,100177.53
2022-07-26T13:17:33.460Z,99916.16
2022-07-26T13:19:59.834Z,99758.97
2022-07-26T13:22:26.228Z,99892.34
2022-07-26T13:24:52.701Z,99867.72
2022-07-26T13:27:20.119Z,99664.28
2022-07-26T13:29:46.486Z,99698.34
2022-07-26T13:32:12.872Z,99678.50
2022-07-26T13:34:39.240Z,99719.84
2022-07-26T13:37:08.046Z,99819.31
2022-07-26T13:39:35.145Z,99708.63
2022-07-26T13:42:01.532Z,99690.25
2022-07-26T13:44:27.928Z,99856.06
2022-07-26T13:46:54.356Z,99829.75
2022-07-26T13:49:20.889Z,99816.25
2022-07-26T13:51:47.333Z,99833.41
2022-07-26T13:54:14.755Z,99866.16
2022-07-26T13:56:41.273Z,99646.16
2022-07-26T13:59:07.639Z,99601.59
2022-07-26T14:01:44.755Z,99757.53
2022-07-26T14:04:13.187Z,99750.53
2022-07-26T14:06:39.965Z,99630.88
2022-07-26T14:09:10.356Z,99573.75
2022-07-26T14:11:37.279Z,99487.13
2022-07-26T14:14:03.775Z,99500.50
2022-07-26T14:16:30.253Z,99421.09
2022-07-26T14:18:57.040Z,99436.22
2022-07-26T14:21:38.709Z,99568.06
2022-07-26T14:24:14.117Z,99553.06
2022-07-26T14:26:42.900Z,99489.81
2022-07-26T14:29:09.279Z,99528.69
2022-07-26T14:31:35.692Z,99660.84
2022-07-26T14:34:02.090Z,99471.72
2022-07-26T14:36:28.489Z,99257.34
2022-07-26T14:38:54.864Z,99436.31
2022-07-26T14:41:21.345Z,99411.31
2022-07-26T14:43:52.492Z,99572.13
2022-07-26T14:46:21.890Z,99455.88
2022-07-26T14:48:54.596Z,99617.47
2022-07-26T14:51:21.405Z,99613.81
2022-07-26T14:53:47.799Z,99588.13
2022-07-26T14:56:14.183Z,99422.72
2022-07-26T14:58:40.576Z,99434.13
2022-07-26T15:01:06.997Z,99640.56
2022-07-26T15:03:33.613Z,99493.84
2022-07-26T15:05:59.984Z,99414.75
2022-07-26T15:08:26.370Z,99428.03
2022-07-26T15:10:52.749Z,99515.25
2022-07-26T15:13:19.127Z,99533.22
2022-07-26T15:15:45.494Z,99499.34
2022-07-26T15:18:12.101Z,99573.38
2022-07-26T15:20:43.030Z,99622.91
2022-07-26T15:23:13.018Z,99605.91
2022-07-26T15:25:39.439Z,99633.75
2022-07-26T15:28:07.605Z,99648.72
2022-07-26T15:30:33.987Z,99767.53
2022-07-26T15:33:00.370Z,99704.22
2022-07-26T15:35:26.760Z,99629.19
2022-07-26T15:37:53.371Z,99793.38
2022-07-26T15:40:19.778Z,99927.66
2022-07-26T15:42:46.174Z,99713.88
2022-07-26T15:45:12.702Z,99616.97
2022-07-26T15:48:01.073Z,99704.69
2022-07-26T15:50:26.035Z,99571.69
2022-07-26T15:52:52.426Z,99568.53
2022-07-26T15:55:19.976Z,99501.88
2022-07-26T15:57:46.486Z,99652.78
2022-07-26T16:00:13.334Z,99773.03
2022-07-26T16:02:39.863Z,99756.94
2022-07-26T16:05:06.414Z,99751.38
2022-07-26T16:07:32.805Z,99746.06
2022-07-26T16:09:59.192Z,99599.41
2022-07-26T16:12:25.591Z,99573.50
2022-07-26T16:14:51.964Z,99468.03
2022-07-26T16:17:18.380Z,99540.78
2022-07-26T16:19:47.573Z,99629.59
2022-07-26T16:22:14.161Z,99600.91
2022-07-26T16:24:41.622Z,99732.16
2022-07-26T16:27:08.433Z,99804.50
2022-07-26T16:29:34.826Z,99809.91
2022-07-26T16:32:03.348Z,99817.09
2022-07-26T16:34:29.782Z,99809.16
2022-07-26T16:36:56.153Z,99898.59
2022-07-26T16:39:22.553Z,99811.88
2022-07-26T16:41:48.935Z,99875.75
2022-07-26T16:44:15.327Z,99937.56
2022-07-26T16:46:41.817Z,99992.38
2022-07-26T16:49:10.874Z,99881.41
2022-07-26T16:51:37.484Z,99891.94
2022-07-26T16:54:04.036Z,100111.69
2022-07-26T16:56:30.421Z,99990.19
2022-07-26T16:58:56.811Z,99776.56
2022-07-26T17:01:23.240Z,99976.25
2022-07-26T17:03:49.698Z,99920.56
2022-07-26T17:06:16.074Z,99980.00
2022-07-26T17:08:42.453Z,100099.69
2022-07-26T17:11:08.863Z,100209.06
2022-07-26T17:13:35.271Z,100173.31
2022-07-26T17:16:01.712Z,100129.72
2022-07-26T17:18:28.594Z,100164.56
2022-07-26T17:20:54.972Z,100126.59
2022-07-26T17:23:21.351Z,100126.28
2022-07-26T17:25:47.719Z,100057.84
2022-07-26T17:28:14.102Z,100124.25
2022-07-26T17:30:43.396Z,100256.19
2022-07-26T17:33:09.843Z,100219.19
2022-07-26T17:35:36.273Z,100241.91
2022-07-26T17:38:02.988Z,100254.81
2022-07-26T17:40:30.099Z,100289.94
2022-07-26T17:42:56.540Z,100250.38
2022-07-26T17:45:23.113Z,100233.88
2022-07-26T17:47:49.494Z,100306.47
2022-07-26T17:53:02.371Z,100328.41
2022-07-26T17:55:28.747Z,100351.00
2022-07-26T17:57:55.126Z,100372.78
2022-07-26T18:00:22.089Z,100468.16
2022-07-26T18:02:48.530Z,100470.69
2022-07-26T18:05:15.086Z,100528.41
2022-07-26T18:07:41.504Z,100487.13
2022-07-26T18:10:08.272Z,100558.00
2022-07-26T18:12:34.646Z,100540.56
2022-07-26T18:15:01.038Z,100608.25
2022-07-26T18:17:27.420Z,100614.44
2022-07-26T18:19:53.808Z,100501.41
2022-07-26T18:22:20.183Z,100512.66
2022-07-26T18:24:46.598Z,100472.16
2022-07-26T18:27:12.986Z,100377.34
2022-07-26T18:29:39.371Z,100362.91
2022-07-26T18:32:06.028Z,100459.47
2022-07-26T18:34:32.420Z,100363.28
2022-07-26T18:36:58.814Z,100362.03
2022-07-26T18:39:25.205Z,100374.53
2022-07-26T18:41:59.091Z,100302.13
2022-07-26T18:44:25.497Z,100312.50
2022-07-26T18:46:51.929Z,100323.63
2022-07-26T18:49:20.082Z,100370.03
2022-07-26T18:51:48.829Z,100413.44
2022-07-26T18:54:15.697Z,100431.63
2022-07-26T18:56:42.066Z,100467.75
2022-07-26T18:59:08.797Z,100470.19
2022-07-26T19:01:35.469Z,100515.19
2022-07-26T19:04:06.522Z,100561.00
2022-07-26T19:06:33.769Z,100537.75
2022-07-26T19:09:00.308Z,100566.06
2022-07-26T19:11:26.696Z,100472.66
2022-07-26T19:13:53.500Z,100346.91
2022-07-26T19:16:22.199Z,100267.00
2022-07-26T19:18:51.665Z,100159.44
2022-07-26T19:21:19.167Z,100129.47
2022-07-26T19:23:45.571Z,100146.16
2022-07-26T19:26:11.947Z,100115.03
2022-07-26T19:28:38.345Z,100252.22
2022-07-26T19:31:04.783Z,100311.31
2022-07-26T19:33:31.214Z,100312.47
2022-07-26T19:35:57.604Z,100364.34
2022-07-26T19:38:23.991Z,100388.19
2022-07-26T19:40:50.372Z,100407.69
2022-07-26T19:43:16.759Z,100424.28
2022-07-26T19:45:43.188Z,100422.72
2022-07-26T19:48:09.594Z,100411.53
2022-07-26T19:50:35.978Z,100415.50
2022-07-26T19:53:02.367Z,100462.88
2022-07-26T19:55:28.759Z,100444.09
2022-07-26T19:57:55.135Z,100496.22
2022-07-26T20:00:21.705Z,100603.25
2022-07-26T20:02:48.197Z,100451.56
2022-07-26T20:05:14.606Z,100519.25
2022-07-26T20:07:40.993Z,100531.41
2022-07-26T20:10:07.866Z,100439.69
2022-07-26T20:12:35.319Z,100450.03
2022-07-26T20:15:01.704Z,100502.59
2022-07-26T20:17:28.144Z,100609.06
2022-07-26T20:19:54.551Z,100672.44
2022-07-26T20:22:20.931Z,100529.31
2022-07-26T20:24:47.309Z,100486.75
2022-07-26T20:27:13.685Z,100480.59
2022-07-26T20:29:40.076Z,100542.47
2022-07-26T20:32:06.508Z,100559.13
2022-07-26T20:34:32.897Z,100612.31
2022-07-26T20:36:59.271Z,100623.94
2022-07-26T20:39:25.659Z,100716.66
2022-07-26T20:41:52.032Z,100639.69
2022-07-26T20:44:20.920Z,100667.03
2022-07-26T20:46:50.361Z,100666.50
2022-07-26T20:49:17.402Z,100710.72
2022-07-26T20:51:44.354Z,100722.00
2022-07-26T20:54:10.747Z,100712.88
2022-07-26T20:56:37.743Z,100759.91
2022-07-26T20:59:04.149Z,100762.91
2022-07-26T21:01:31.067Z,100841.25
2022-07-26T21:03:57.482Z,100865.47
2022-07-26T21:06:23.864Z,100873.88
2022-07-26T21:08:52.059Z,100871.25
2022-07-26T21:11:18.702Z,100886.00
2022-07-26T21:13:45.706Z,100935.19
2022-07-26T21:16:15.133Z,100937.03
2022-07-26T21:18:41.554Z,100953.84
2022-07-26T21:21:07.963Z,100999.09
2022-07-26T21:23:34.345Z,100963.56
2022-07-26T21:26:01.076Z,100939.91
2022-07-26T21:28:27.572Z,100916.78
2022-07-26T21:30:53.969Z,100916.22
2022-07-26T21:33:20.337Z,100889.41
2022-07-26T21:35:46.728Z,100893.91
2022-07-26T21:38:13.108Z,100884.19
2022-07-26T21:40:39.497Z,100938.03
2022-07-26T21:43:05.862Z,100945.13
2022-07-26T21:45:32.280Z,100947.78
2022-07-26T21:47:58.691Z,100934.38
2022-07-26T21:50:25.107Z,100951.19
2022-07-26T21:52:51.489Z,100961.47
2022-07-26T21:55:18.255Z,100948.03
2022-07-26T21:57:44.729Z,100946.97
2022-07-26T22:00:12.445Z,100920.69
2022-07-26T22:02:38.857Z,100912.81
2022-07-26T22:05:05.601Z,100927.81
2022-07-26T22:07:31.970Z,100943.06
2022-07-26T22:09:58.358Z,100921.25
2022-07-26T22:12:24.739Z,100870.22
2022-07-26T22:14:51.125Z,100925.41
2022-07-26T22:17:17.511Z,100892.28
2022-07-26T22:19:43.905Z,100918.81
2022-07-26T22:22:10.279Z,100933.00
2022-07-26T22:24:36.670Z,100949.81
2022-07-26T22:27:03.074Z,100943.25
2022-07-26T22:29:35.729Z,100955.31
2022-07-26T22:32:06.796Z,100974.53
2022-07-26T22:34:33.210Z,100962.44
2022-07-26T22:36:59.595Z,100937.19
2022-07-26T22:39:25.969Z,100947.19
2022-07-26T22:42:14.450Z,100986.31
2022-07-26T22:44:38.709Z,100966.66
2022-07-26T22:47:05.368Z,100944.81
2022-07-26T22:49:31.814Z,100936.44
2022-07-26T22:51:58.202Z,100922.53
2022-07-26T22:54:24.570Z,100910.69
2022-07-26T22:56:50.956Z,100909.63
2022-07-26T22:59:17.330Z,100934.31
2022-07-26T23:01:43.722Z,100933.00
2022-07-26T23:04:10.168Z,100937.72
2022-07-26T23:06:37.103Z,100932.97
2022-07-26T23:09:04.728Z,100936.41
2022-07-26T23:11:31.793Z,100957.66
2022-07-26T23:13:59.344Z,100945.31
2022-07-26T23:16:26.021Z,100959.44
2022-07-26T23:18:52.579Z,100979.13
2022-07-26T23:21:18.961Z,100989.41
2022-07-26T23:23:45.334Z,100986.47
2022-07-26T23:26:11.704Z,100980.94
2022-07-26T23:28:38.676Z,100998.75
2022-07-26T23:31:06.853Z,101035.56
2022-07-26T23:33:52.932Z,101017.09
2022-07-26T23:36:19.629Z,101002.19
2022-07-26T23:38:46.010Z,101010.34
2022-07-26T23:41:12.405Z,101003.72
2022-07-26T23:43:38.785Z,100996.41
2022-07-26T23:46:05.186Z,100988.81
2022-07-26T23:48:31.639Z,100987.97
2022-07-26T23:50:58.138Z,101001.88
2022-07-26T23:53:26.744Z,101010.34
2022-07-26T23:55:53.502Z,100982.44
2022-07-26T23:58:19.883Z,100985.81
